createdAt,value
2023-04-16T00:01:52.852Z,10.20
2023-04-16T00:04:41.764Z,10.00
2023-04-16T00:07:32.208Z,10.00
2023-04-16T00:10:21.021Z,10.20
2023-04-16T00:13:09.818Z,10.20
2023-04-16T00:15:59.191Z,10.20
2023-04-16T00:18:47.998Z,10.10
2023-04-16T00:21:36.801Z,10.10
2023-04-16T00:24:27.009Z,10.40
2023-04-16T00:27:16.166Z,10.40
2023-04-16T00:30:04.975Z,10.30
2023-04-16T00:32:53.882Z,10.10
2023-04-16T00:35:42.661Z,10.10
2023-04-16T00:38:32.802Z,10.20
2023-04-16T00:41:23.197Z,10.20
2023-04-16T00:44:12.155Z,10.10
2023-04-16T00:47:01.413Z,10.00
2023-04-16T00:49:50.548Z,9.90
2023-04-16T00:52:40.141Z,9.90
2023-04-16T00:55:28.849Z,9.80
2023-04-16T00:58:19.539Z,9.80
2023-04-16T01:01:08.461Z,9.90
2023-04-16T01:03:57.921Z,9.90
2023-04-16T01:06:48.691Z,9.80
2023-04-16T01:09:37.477Z,10.00
2023-04-16T01:12:26.367Z,10.10
2023-04-16T01:15:16.525Z,10.00
2023-04-16T01:18:14.297Z,9.80
2023-04-16T01:21:05.135Z,9.80
2023-04-16T01:23:54.102Z,9.90
2023-04-16T01:26:42.775Z,10.00
2023-04-16T01:29:31.601Z,10.10
2023-04-16T01:32:21.596Z,10.00
2023-04-16T01:35:10.658Z,9.90
2023-04-16T01:38:01.098Z,9.80
2023-04-16T01:40:50.205Z,9.70
2023-04-16T01:43:40.297Z,9.80
2023-04-16T01:46:30.483Z,9.60
2023-04-16T01:49:19.923Z,9.60
2023-04-16T01:52:08.862Z,9.60
2023-04-16T01:54:59.101Z,9.50
2023-04-16T01:57:48.104Z,9.60
2023-04-16T02:00:37.692Z,9.50
2023-04-16T02:03:26.988Z,9.70
2023-04-16T02:06:16.606Z,9.60
2023-04-16T02:09:05.622Z,9.80
2023-04-16T02:11:55.946Z,9.70
2023-04-16T02:14:44.836Z,9.80
2023-04-16T02:17:38.305Z,9.80
2023-04-16T02:20:32.101Z,9.80
2023-04-16T02:23:22.103Z,9.90
2023-04-16T02:26:13.253Z,9.80
2023-04-16T02:29:03.839Z,9.90
2023-04-16T02:32:00.269Z,10.00
2023-04-16T02:34:50.213Z,10.00
2023-04-16T02:37:40.943Z,9.80
2023-04-16T02:40:31.112Z,9.80
2023-04-16T02:43:20.255Z,9.60
2023-04-16T02:46:10.413Z,9.70
2023-04-16T02:48:59.138Z,9.80
2023-04-16T02:51:47.865Z,9.80
2023-04-16T02:54:36.718Z,9.80
2023-04-16T02:57:25.559Z,9.60
2023-04-16T03:00:15.289Z,9.60
2023-04-16T03:03:18.244Z,9.60
2023-04-16T03:06:07.341Z,9.60
2023-04-16T03:08:56.117Z,9.70
2023-04-16T03:11:44.933Z,9.60
2023-04-16T03:14:34.154Z,9.70
2023-04-16T03:17:22.928Z,9.60
2023-04-16T03:20:14.637Z,9.60
2023-04-16T03:23:03.935Z,9.60
2023-04-16T03:25:52.862Z,9.50
2023-04-16T03:28:41.663Z,9.50
2023-04-16T03:31:31.031Z,9.80
2023-04-16T03:34:21.161Z,9.70
2023-04-16T03:37:14.853Z,9.90
2023-04-16T03:40:03.879Z,9.80
2023-04-16T03:42:53.284Z,9.80
2023-04-16T03:45:46.134Z,9.80
2023-04-16T03:48:35.223Z,9.90
2023-04-16T03:51:23.986Z,10.00
2023-04-16T03:54:15.915Z,10.00
2023-04-16T03:57:09.399Z,10.00
2023-04-16T03:59:58.192Z,9.90
2023-04-16T04:02:49.903Z,9.90
2023-04-16T04:05:42.405Z,10.10
2023-04-16T04:08:33.460Z,9.90
2023-04-16T04:11:23.595Z,9.80
2023-04-16T04:14:15.480Z,9.70
2023-04-16T04:17:04.209Z,9.70
2023-04-16T04:20:01.258Z,9.70
2023-04-16T04:22:52.613Z,9.90
2023-04-16T04:25:45.488Z,9.90
2023-04-16T04:28:37.060Z,9.90
2023-04-16T04:31:26.634Z,10.00
2023-04-16T04:34:16.196Z,10.10
2023-04-16T04:37:05.091Z,10.10
2023-04-16T04:39:54.191Z,10.20
2023-04-16T04:42:42.989Z,10.40
2023-04-16T04:45:33.420Z,10.10
2023-04-16T04:48:26.888Z,10.20
2023-04-16T04:51:16.438Z,10.40
2023-04-16T04:54:07.455Z,10.30
2023-04-16T04:56:56.763Z,10.20
2023-04-16T04:59:45.846Z,10.30
2023-04-16T05:02:37.566Z,10.40
2023-04-16T05:05:26.545Z,10.60
2023-04-16T05:08:16.324Z,10.50
2023-04-16T05:11:05.168Z,10.30
2023-04-16T05:13:54.116Z,10.30
2023-04-16T05:16:42.794Z,10.20
2023-04-16T05:19:33.024Z,10.40
2023-04-16T05:22:21.711Z,10.50
2023-04-16T05:25:10.870Z,10.60
2023-04-16T05:27:59.652Z,10.70
2023-04-16T05:30:48.410Z,10.30
2023-04-16T05:33:37.197Z,10.30
2023-04-16T05:36:27.352Z,10.50
2023-04-16T05:39:18.633Z,10.50
2023-04-16T05:42:07.490Z,10.50
2023-04-16T05:44:56.398Z,10.30
2023-04-16T05:47:45.576Z,10.50
2023-04-16T05:50:34.406Z,10.50
2023-04-16T05:53:24.605Z,10.50
2023-04-16T05:56:15.290Z,10.60
2023-04-16T05:59:04.315Z,10.50
2023-04-16T06:01:53.119Z,10.50
2023-04-16T06:04:41.891Z,10.20
2023-04-16T06:07:30.789Z,10.40
2023-04-16T06:10:21.113Z,10.50
2023-04-16T06:13:10.037Z,10.50
2023-04-16T06:15:58.840Z,10.50
2023-04-16T06:18:47.594Z,10.50
2023-04-16T06:21:38.016Z,10.60
2023-04-16T06:24:26.765Z,10.40
2023-04-16T06:27:17.648Z,10.20
2023-04-16T06:30:07.703Z,10.50
2023-04-16T06:32:56.501Z,10.40
2023-04-16T06:35:45.338Z,10.50
2023-04-16T06:38:34.137Z,10.70
2023-04-16T06:41:25.578Z,10.80
2023-04-16T06:44:17.943Z,10.50
2023-04-16T06:47:06.639Z,10.70
2023-04-16T06:49:55.668Z,10.70
2023-04-16T06:52:44.460Z,10.70
2023-04-16T06:55:33.340Z,10.90
2023-04-16T06:58:22.450Z,10.70
2023-04-16T07:01:14.958Z,10.90
2023-04-16T07:06:53.241Z,11.10
2023-04-16T07:09:42.265Z,11.10
2023-04-16T07:12:31.889Z,11.10
2023-04-16T07:15:20.625Z,11.10
2023-04-16T07:18:10.791Z,11.30
2023-04-16T07:21:02.308Z,11.10
2023-04-16T07:23:51.096Z,11.00
2023-04-16T07:26:40.082Z,11.10
2023-04-16T07:29:28.754Z,11.30
2023-04-16T07:32:17.754Z,11.10
2023-04-16T07:35:08.983Z,11.20
2023-04-16T07:37:57.802Z,11.20
2023-04-16T07:40:46.517Z,11.20
2023-04-16T07:43:35.191Z,11.00
2023-04-16T07:46:24.984Z,11.20
2023-04-16T07:49:16.250Z,11.40
2023-04-16T07:52:06.914Z,11.10
2023-04-16T07:54:55.857Z,11.30
2023-04-16T07:57:44.776Z,11.30
2023-04-16T08:00:33.937Z,11.50
2023-04-16T08:03:23.108Z,11.50
2023-04-16T08:06:12.744Z,11.50
2023-04-16T08:09:03.487Z,11.70
2023-04-16T08:11:52.360Z,11.70
2023-04-16T08:14:41.536Z,11.70
2023-04-16T08:17:30.759Z,11.70
2023-04-16T08:20:19.938Z,11.60
2023-04-16T08:23:08.670Z,11.70
2023-04-16T08:25:59.004Z,11.60
2023-04-16T08:28:47.787Z,11.70
2023-04-16T08:31:36.633Z,11.80
2023-04-16T08:34:25.518Z,11.80
2023-04-16T08:37:16.219Z,12.20
2023-04-16T08:40:05.931Z,12.30
2023-04-16T08:42:59.514Z,12.30
2023-04-16T08:45:49.507Z,12.50
2023-04-16T08:48:38.891Z,12.60
2023-04-16T08:51:35.336Z,12.30
2023-04-16T08:54:37.923Z,12.30
2023-04-16T08:57:32.145Z,12.40
2023-04-16T09:00:22.977Z,12.40
2023-04-16T09:03:12.051Z,12.60
2023-04-16T09:06:03.308Z,12.50
2023-04-16T09:08:53.841Z,12.50
2023-04-16T09:11:44.422Z,12.60
2023-04-16T09:14:33.559Z,12.60
2023-04-16T09:17:23.798Z,12.70
2023-04-16T09:20:15.179Z,12.80
2023-04-16T09:23:04.178Z,12.80
2023-04-16T09:25:53.146Z,12.70
2023-04-16T09:28:43.505Z,12.90
2023-04-16T09:31:32.299Z,13.10
2023-04-16T09:34:22.543Z,12.90
2023-04-16T09:37:17.839Z,13.00
2023-04-16T09:40:07.881Z,13.10
2023-04-16T09:43:00.991Z,13.30
2023-04-16T09:45:51.563Z,13.30
2023-04-16T09:48:40.487Z,13.20
2023-04-16T09:51:38.379Z,13.20
2023-04-16T09:54:27.739Z,13.20
2023-04-16T09:57:17.200Z,13.10
2023-04-16T10:00:09.003Z,13.30
2023-04-16T10:03:06.707Z,13.30
2023-04-16T10:05:55.781Z,13.30
2023-04-16T10:08:50.743Z,13.20
2023-04-16T10:11:40.770Z,13.20
2023-04-16T10:14:29.560Z,13.40
2023-04-16T10:17:18.544Z,13.40
2023-04-16T10:20:09.555Z,13.40
2023-04-16T10:22:58.892Z,13.40
2023-04-16T10:25:49.639Z,13.20
2023-04-16T10:28:38.665Z,13.10
2023-04-16T10:31:28.714Z,13.30
2023-04-16T10:34:18.628Z,13.20
2023-04-16T10:37:07.418Z,13.30
2023-04-16T10:39:58.604Z,13.00
2023-04-16T10:42:55.952Z,12.80
2023-04-16T10:45:44.718Z,12.80
2023-04-16T10:48:46.544Z,12.90
2023-04-16T10:51:38.774Z,13.00
2023-04-16T10:54:28.766Z,12.90
2023-04-16T10:57:19.122Z,13.30
2023-04-16T11:00:24.266Z,13.20
2023-04-16T11:03:13.163Z,13.30
2023-04-16T11:06:17.154Z,13.40
2023-04-16T11:09:05.900Z,13.60
2023-04-16T11:11:55.096Z,13.80
2023-04-16T11:14:44.568Z,13.70
2023-04-16T11:17:39.061Z,13.60
2023-04-16T11:20:29.008Z,13.80
2023-04-16T11:23:17.806Z,13.80
2023-04-16T11:26:06.626Z,13.60
2023-04-16T11:28:56.931Z,13.60
2023-04-16T11:31:51.955Z,13.60
2023-04-16T11:34:48.256Z,13.60
2023-04-16T11:37:38.859Z,13.70
2023-04-16T11:40:31.303Z,14.10
2023-04-16T11:43:20.161Z,14.00
2023-04-16T11:46:24.101Z,13.90
2023-04-16T11:49:17.485Z,15.40
2023-04-16T11:52:07.879Z,18.70
2023-04-16T11:54:56.883Z,17.70
2023-04-16T11:57:46.253Z,15.70
2023-04-16T12:00:36.799Z,15.60
2023-04-16T12:03:40.512Z,15.50
2023-04-16T12:06:29.606Z,15.40
2023-04-16T12:09:27.280Z,15.70
2023-04-16T12:12:31.694Z,15.70
2023-04-16T12:15:21.101Z,15.30
2023-04-16T12:18:10.364Z,14.80
2023-04-16T12:20:59.127Z,14.80
2023-04-16T12:23:47.813Z,14.80
2023-04-16T12:26:43.050Z,14.80
2023-04-16T12:29:32.089Z,15.00
2023-04-16T12:32:24.435Z,15.00
2023-04-16T12:35:14.325Z,14.80
2023-04-16T12:38:03.859Z,15.10
2023-04-16T12:40:52.667Z,15.10
2023-04-16T12:43:42.810Z,15.30
2023-04-16T12:46:32.018Z,15.20
2023-04-16T12:49:20.787Z,15.30
2023-04-16T12:52:09.863Z,15.40
2023-04-16T12:54:58.603Z,15.40
2023-04-16T12:57:49.098Z,15.60
2023-04-16T13:00:39.240Z,15.30
2023-04-16T13:03:28.121Z,15.40
2023-04-16T13:06:17.658Z,15.20
2023-04-16T13:09:06.999Z,15.00
2023-04-16T13:11:56.047Z,15.00
2023-04-16T13:14:45.126Z,14.80
2023-04-16T13:17:35.490Z,14.60
2023-04-16T13:20:24.675Z,14.60
2023-04-16T13:23:14.162Z,14.60
2023-04-16T13:26:03.499Z,14.70
2023-04-16T13:28:52.277Z,15.10
2023-04-16T13:31:41.391Z,15.20
2023-04-16T13:34:32.002Z,15.20
2023-04-16T13:37:20.787Z,15.30
2023-04-16T13:40:10.970Z,15.60
2023-04-16T13:42:59.958Z,15.40
2023-04-16T13:45:48.987Z,15.50
2023-04-16T13:48:37.720Z,15.40
2023-04-16T13:51:28.569Z,15.50
2023-04-16T13:54:17.382Z,15.10
2023-04-16T13:57:06.304Z,15.10
2023-04-16T13:59:55.688Z,15.10
2023-04-16T14:02:46.084Z,15.10
2023-04-16T14:05:35.331Z,15.10
2023-04-16T14:08:25.478Z,15.00
2023-04-16T14:11:14.337Z,14.80
2023-04-16T14:14:03.487Z,14.80
2023-04-16T14:16:52.330Z,14.70
2023-04-16T14:19:42.070Z,14.70
2023-04-16T14:22:31.004Z,14.70
2023-04-16T14:25:21.217Z,14.70
2023-04-16T14:28:10.267Z,14.70
2023-04-16T14:30:59.065Z,14.70
2023-04-16T14:33:47.962Z,14.90
2023-04-16T14:36:37.331Z,14.90
2023-04-16T14:39:26.162Z,14.70
2023-04-16T14:42:16.400Z,14.70
2023-04-16T14:45:06.817Z,14.80
2023-04-16T14:47:56.090Z,14.60
2023-04-16T14:50:45.746Z,14.50
2023-04-16T14:53:36.222Z,14.50
2023-04-16T14:56:24.945Z,14.50
2023-04-16T14:59:15.615Z,14.30
2023-04-16T15:02:04.699Z,14.40
2023-04-16T15:04:53.626Z,14.50
2023-04-16T15:07:42.477Z,14.50
2023-04-16T15:10:31.400Z,14.50
2023-04-16T15:13:20.448Z,14.60
2023-04-16T15:16:11.768Z,14.40
2023-04-16T15:19:01.140Z,14.40
2023-04-16T15:21:50.817Z,14.30
2023-04-16T15:24:39.638Z,14.30
2023-04-16T15:27:28.800Z,14.20
2023-04-16T15:30:17.839Z,14.20
2023-04-16T15:33:08.309Z,14.20
2023-04-16T15:35:57.113Z,14.20
2023-04-16T15:38:45.882Z,14.10
2023-04-16T15:41:50.149Z,14.10
2023-04-16T15:44:46.034Z,14.10
2023-04-16T15:47:34.891Z,14.10
2023-04-16T15:50:26.565Z,14.10
2023-04-16T15:53:18.654Z,14.10
2023-04-16T15:56:07.542Z,14.10
2023-04-16T15:58:57.370Z,13.90
2023-04-16T16:01:46.148Z,13.90
2023-04-16T16:04:35.093Z,13.80
2023-04-16T16:07:25.386Z,13.90
2023-04-16T16:10:15.078Z,13.90
2023-04-16T16:13:06.168Z,13.90
2023-04-16T16:15:55.312Z,13.80
2023-04-16T16:18:44.223Z,13.80
2023-04-16T16:21:33.313Z,13.80
2023-04-16T16:24:23.566Z,13.80
2023-04-16T16:27:12.990Z,13.80
2023-04-16T16:30:02.318Z,13.70
2023-04-16T16:32:51.366Z,13.80
2023-04-16T16:35:40.241Z,13.80
2023-04-16T16:38:29.166Z,13.70
2023-04-16T16:41:19.283Z,13.70
2023-04-16T16:44:08.101Z,13.80
2023-04-16T16:46:57.089Z,13.60
2023-04-16T16:49:46.579Z,13.40
2023-04-16T16:52:35.404Z,13.30
2023-04-16T16:55:24.508Z,13.30
2023-04-16T16:58:17.211Z,13.30
2023-04-16T17:01:06.089Z,13.20
2023-04-16T17:03:55.106Z,13.20
2023-04-16T17:06:44.088Z,13.20
2023-04-16T17:09:33.545Z,13.20
2023-04-16T17:12:23.728Z,13.20
2023-04-16T17:15:14.144Z,13.10
2023-04-16T17:18:03.307Z,13.00
2023-04-16T17:20:52.435Z,13.00
2023-04-16T17:23:41.404Z,13.00
2023-04-16T17:26:30.208Z,12.90
2023-04-16T17:29:20.182Z,12.90
2023-04-16T17:32:10.632Z,12.80
2023-04-16T17:35:01.012Z,12.80
2023-04-16T17:37:49.978Z,12.70
2023-04-16T17:40:38.736Z,12.70
2023-04-16T17:43:28.374Z,12.60
2023-04-16T17:46:17.429Z,12.70
2023-04-16T17:49:07.771Z,12.70
2023-04-16T17:51:58.770Z,12.70
2023-04-16T17:54:47.608Z,12.60
2023-04-16T17:57:36.666Z,12.60
2023-04-16T18:00:26.091Z,12.50
2023-04-16T18:03:15.998Z,12.40
2023-04-16T18:06:07.064Z,12.50
2023-04-16T18:08:55.969Z,12.40
2023-04-16T18:11:44.862Z,12.50
2023-04-16T18:14:36.067Z,12.30
2023-04-16T18:17:24.931Z,12.20
2023-04-16T18:20:16.999Z,12.20
2023-04-16T18:23:07.137Z,12.30
2023-04-16T18:25:56.068Z,12.30
2023-04-16T18:28:45.450Z,12.10
2023-04-16T18:31:34.471Z,12.10
2023-04-16T18:34:23.731Z,12.10
2023-04-16T18:37:12.467Z,12.10
2023-04-16T18:40:03.012Z,12.00
2023-04-16T18:42:51.749Z,12.00
2023-04-16T18:45:40.686Z,11.90
2023-04-16T18:48:29.827Z,11.80
2023-04-16T18:51:18.718Z,11.70
2023-04-16T18:54:08.005Z,11.70
2023-04-16T18:56:59.736Z,11.80
2023-04-16T18:59:49.570Z,11.80
2023-04-16T19:02:38.769Z,11.80
2023-04-16T19:05:27.714Z,11.70
2023-04-16T19:08:16.452Z,11.70
2023-04-16T19:11:05.180Z,11.60
2023-04-16T19:13:55.440Z,11.60
2023-04-16T19:16:44.313Z,11.60
2023-04-16T19:19:33.455Z,11.50
2023-04-16T19:22:22.271Z,11.60
2023-04-16T19:25:11.630Z,11.60
2023-04-16T19:28:00.415Z,11.50
2023-04-16T19:30:53.287Z,11.40
2023-04-16T19:33:42.124Z,11.30
2023-04-16T19:36:32.179Z,11.30
2023-04-16T19:39:20.891Z,11.20
2023-04-16T19:42:10.059Z,11.20
2023-04-16T19:44:58.930Z,11.20
2023-04-16T19:47:51.300Z,11.20
2023-04-16T19:50:43.675Z,11.10
2023-04-16T19:53:34.269Z,11.10
2023-04-16T19:56:23.108Z,11.00
2023-04-16T19:59:12.206Z,10.90
2023-04-16T20:02:01.245Z,10.90
2023-04-16T20:04:53.186Z,10.80
2023-04-16T20:07:41.973Z,10.90
2023-04-16T20:10:31.629Z,10.80
2023-04-16T20:13:20.582Z,10.80
2023-04-16T20:16:13.780Z,10.70
2023-04-16T20:19:08.627Z,10.70
2023-04-16T20:21:59.395Z,10.70
2023-04-16T20:24:48.333Z,10.70
2023-04-16T20:27:37.467Z,10.80
2023-04-16T20:30:29.513Z,10.80
2023-04-16T20:33:18.664Z,10.90
2023-04-16T20:36:09.543Z,10.80
2023-04-16T20:39:02.253Z,10.70
2023-04-16T20:41:56.735Z,10.60
2023-04-16T20:44:50.524Z,10.60
2023-04-16T20:47:39.397Z,10.50
2023-04-16T20:50:28.935Z,10.60
2023-04-16T20:53:17.738Z,10.50
2023-04-16T20:56:09.295Z,10.50
2023-04-16T20:58:59.447Z,10.60
2023-04-16T21:01:48.851Z,10.50
2023-04-16T21:04:37.784Z,10.50
2023-04-16T21:07:26.554Z,10.40
2023-04-16T21:10:20.352Z,10.40
2023-04-16T21:13:11.916Z,10.30
2023-04-16T21:16:01.260Z,10.30
2023-04-16T21:18:50.182Z,10.30
2023-04-16T21:21:39.441Z,10.40
2023-04-16T21:24:28.224Z,10.20
2023-04-16T21:27:16.981Z,10.40
2023-04-16T21:30:09.120Z,10.40
2023-04-16T21:32:57.958Z,10.40
2023-04-16T21:35:51.740Z,10.30
2023-04-16T21:38:40.895Z,10.20
2023-04-16T21:41:29.736Z,10.20
2023-04-16T21:44:18.472Z,10.40
2023-04-16T21:47:09.405Z,10.20
2023-04-16T21:49:58.100Z,10.30
2023-04-16T21:52:47.246Z,10.20
2023-04-16T21:55:36.332Z,10.30
2023-04-16T21:58:25.834Z,10.40
2023-04-16T22:01:14.591Z,10.30
2023-04-16T22:04:05.069Z,10.40
2023-04-16T22:06:56.081Z,10.50
2023-04-16T22:09:44.874Z,10.30
2023-04-16T22:12:37.791Z,10.30
2023-04-16T22:15:26.943Z,10.30
2023-04-16T22:18:15.754Z,10.30
2023-04-16T22:21:07.631Z,10.20
2023-04-16T22:23:56.382Z,10.20
2023-04-16T22:26:45.100Z,10.20
2023-04-16T22:29:34.107Z,10.30
2023-04-16T22:32:23.022Z,10.20
2023-04-16T22:35:12.721Z,10.20
2023-04-16T22:38:03.076Z,10.20
2023-04-16T22:40:52.942Z,10.20
2023-04-16T22:43:43.059Z,10.30
2023-04-16T22:46:32.595Z,10.20
2023-04-16T22:49:21.535Z,10.10
2023-04-16T22:52:10.159Z,10.20
2023-04-16T22:55:00.315Z,10.20
2023-04-16T22:57:49.764Z,10.20
2023-04-16T23:00:38.589Z,10.20
2023-04-16T23:03:27.515Z,10.20
2023-04-16T23:06:16.622Z,10.30
2023-04-16T23:09:06.051Z,10.30
2023-04-16T23:11:59.200Z,10.30
2023-04-16T23:14:48.148Z,10.10
2023-04-16T23:17:36.923Z,10.10
2023-04-16T23:20:26.021Z,10.20
2023-04-16T23:23:14.734Z,10.20
2023-04-16T23:26:03.621Z,10.20
2023-04-16T23:28:53.997Z,10.00
2023-04-16T23:31:42.757Z,10.00
2023-04-16T23:34:31.545Z,10.10
2023-04-16T23:37:20.317Z,10.20
2023-04-16T23:40:10.243Z,10.20
2023-04-16T23:42:59.047Z,10.20
2023-04-16T23:45:49.342Z,10.40
2023-04-16T23:48:38.023Z,10.30
2023-04-16T23:51:27.136Z,10.30
2023-04-16T23:54:16.077Z,10.30
2023-04-16T23:57:04.964Z,10.30
2023-04-16T23:59:53.652Z,10.20
